createdAt,value
2023-04-27T00:00:24.961Z,0.00
2023-04-27T00:01:25.198Z,0.00
2023-04-27T00:02:25.238Z,0.00
2023-04-27T00:03:25.438Z,0.00
2023-04-27T00:04:25.599Z,0.00
2023-04-27T00:05:25.437Z,0.00
2023-04-27T00:06:25.430Z,0.00
2023-04-27T00:07:25.632Z,0.00
2023-04-27T00:08:25.600Z,0.00
2023-04-27T00:09:25.718Z,0.00
2023-04-27T00:10:25.765Z,0.00
2023-04-27T00:11:25.859Z,0.00
2023-04-27T00:12:25.944Z,0.00
2023-04-27T00:13:25.991Z,0.00
2023-04-27T00:14:26.151Z,0.00
2023-04-27T00:15:26.144Z,0.00
2023-04-27T00:16:26.285Z,0.00
2023-04-27T00:17:26.351Z,0.00
2023-04-27T00:18:26.356Z,0.00
2023-04-27T00:19:26.454Z,0.00
2023-04-27T00:20:26.524Z,0.00
2023-04-27T00:21:26.590Z,0.00
2023-04-27T00:22:26.678Z,0.00
2023-04-27T00:23:26.758Z,0.00
2023-04-27T00:24:26.848Z,0.00
2023-04-27T00:25:26.947Z,0.00
2023-04-27T00:26:27.019Z,0.00
2023-04-27T00:27:27.115Z,0.00
2023-04-27T00:28:27.219Z,0.00
2023-04-27T00:29:27.323Z,0.00
2023-04-27T00:30:27.364Z,0.00
2023-04-27T00:31:27.460Z,0.00
2023-04-27T00:32:27.572Z,0.00
2023-04-27T00:33:27.599Z,0.00
2023-04-27T00:34:27.663Z,0.00
2023-04-27T00:35:27.754Z,0.00
2023-04-27T00:36:27.876Z,0.00
2023-04-27T00:37:27.934Z,0.00
2023-04-27T00:38:27.988Z,0.00
2023-04-27T00:39:28.108Z,0.00
2023-04-27T00:40:28.154Z,0.00
2023-04-27T00:41:28.272Z,0.00
2023-04-27T00:42:28.342Z,0.00
2023-04-27T00:43:28.395Z,0.00
2023-04-27T00:44:28.496Z,0.00
2023-04-27T00:45:28.658Z,0.00
2023-04-27T00:46:28.760Z,0.00
2023-04-27T00:47:28.748Z,0.00
2023-04-27T00:48:28.773Z,0.00
2023-04-27T00:49:28.872Z,0.00
2023-04-27T00:50:28.928Z,0.00
2023-04-27T00:51:29.025Z,0.00
2023-04-27T00:52:29.109Z,0.00
2023-04-27T00:53:29.217Z,0.00
2023-04-27T00:54:29.276Z,0.00
2023-04-27T00:55:29.359Z,0.00
2023-04-27T00:56:29.399Z,0.00
2023-04-27T00:57:29.502Z,0.00
2023-04-27T00:58:29.553Z,0.00
2023-04-27T00:59:29.667Z,0.00
2023-04-27T01:00:29.725Z,0.00
2023-04-27T01:01:29.859Z,0.00
2023-04-27T01:02:30.204Z,0.00
2023-04-27T01:03:30.074Z,0.00
2023-04-27T01:04:30.171Z,0.00
2023-04-27T01:05:32.016Z,0.00
2023-04-27T01:06:30.170Z,0.00
2023-04-27T01:07:30.257Z,0.00
2023-04-27T01:08:30.336Z,0.00
2023-04-27T01:09:30.453Z,0.00
2023-04-27T01:10:30.523Z,0.00
2023-04-27T01:11:30.607Z,0.00
2023-04-27T01:12:30.669Z,0.00
2023-04-27T01:13:30.752Z,0.00
2023-04-27T01:14:30.863Z,0.00
2023-04-27T01:15:30.930Z,0.00
2023-04-27T01:16:31.075Z,0.00
2023-04-27T01:17:31.118Z,0.00
2023-04-27T01:18:31.176Z,0.00
2023-04-27T01:19:31.277Z,0.00
2023-04-27T01:20:31.344Z,0.00
2023-04-27T01:21:31.450Z,0.00
2023-04-27T01:22:31.539Z,0.00
2023-04-27T01:23:31.613Z,0.00
2023-04-27T01:24:31.714Z,0.00
2023-04-27T01:25:31.793Z,0.00
2023-04-27T01:26:31.865Z,0.00
2023-04-27T01:27:31.953Z,0.00
2023-04-27T01:28:32.052Z,0.00
2023-04-27T01:29:32.142Z,0.00
2023-04-27T01:30:32.166Z,0.00
2023-04-27T01:31:32.285Z,0.00
2023-04-27T01:32:32.340Z,0.00
2023-04-27T01:33:32.434Z,0.00
2023-04-27T01:34:32.507Z,0.00
2023-04-27T01:35:32.595Z,0.00
2023-04-27T01:36:32.680Z,0.00
2023-04-27T01:37:32.772Z,0.00
2023-04-27T01:38:32.851Z,0.00
2023-04-27T01:39:32.991Z,0.00
2023-04-27T01:40:33.000Z,0.00
2023-04-27T01:41:33.098Z,0.00
2023-04-27T01:42:33.179Z,0.00
2023-04-27T01:43:33.279Z,0.00
2023-04-27T01:44:33.369Z,0.00
2023-04-27T01:45:33.465Z,0.00
2023-04-27T01:46:33.554Z,0.00
2023-04-27T01:47:33.661Z,0.00
2023-04-27T01:48:33.703Z,0.00
2023-04-27T01:49:33.806Z,0.00
2023-04-27T01:50:33.859Z,0.00
2023-04-27T01:51:33.954Z,0.00
2023-04-27T01:52:34.036Z,0.00
2023-04-27T01:53:34.167Z,0.00
2023-04-27T01:54:34.239Z,0.00
2023-04-27T01:55:34.320Z,0.00
2023-04-27T01:56:34.400Z,0.00
2023-04-27T01:57:34.481Z,0.00
2023-04-27T01:58:34.577Z,0.00
2023-04-27T01:59:34.664Z,0.00
2023-04-27T02:00:34.740Z,0.00
2023-04-27T02:01:34.848Z,0.00
2023-04-27T02:02:35.041Z,0.00
2023-04-27T02:03:35.179Z,0.00
2023-04-27T02:04:35.268Z,0.00
2023-04-27T02:05:35.134Z,0.00
2023-04-27T02:06:35.232Z,0.00
2023-04-27T02:07:35.300Z,0.00
2023-04-27T02:08:35.399Z,0.00
2023-04-27T02:09:35.487Z,0.00
2023-04-27T02:10:35.564Z,0.00
2023-04-27T02:11:35.607Z,0.00
2023-04-27T02:12:35.713Z,0.00
2023-04-27T02:13:35.775Z,0.00
2023-04-27T02:14:35.876Z,0.00
2023-04-27T02:15:35.958Z,0.00
2023-04-27T02:16:36.108Z,0.00
2023-04-27T02:17:36.210Z,0.00
2023-04-27T02:18:36.212Z,0.00
2023-04-27T02:19:36.275Z,0.00
2023-04-27T02:20:36.338Z,0.00
2023-04-27T02:21:36.390Z,0.00
2023-04-27T02:22:36.464Z,0.00
2023-04-27T02:23:36.524Z,0.00
2023-04-27T02:24:36.615Z,0.00
2023-04-27T02:25:36.671Z,0.00
2023-04-27T02:26:36.762Z,0.00
2023-04-27T02:27:36.834Z,0.00
2023-04-27T02:28:36.901Z,0.00
2023-04-27T02:29:36.987Z,0.00
2023-04-27T02:30:37.047Z,0.00
2023-04-27T02:31:37.159Z,0.00
2023-04-27T02:32:37.222Z,0.00
2023-04-27T02:33:37.280Z,0.00
2023-04-27T02:34:37.383Z,0.00
2023-04-27T02:35:37.460Z,0.00
2023-04-27T02:36:37.515Z,0.00
2023-04-27T02:37:37.588Z,0.00
2023-04-27T02:38:37.655Z,0.00
2023-04-27T02:39:37.737Z,0.00
2023-04-27T02:40:37.812Z,0.00
2023-04-27T02:41:37.869Z,0.00
2023-04-27T02:42:37.980Z,0.00
2023-04-27T02:43:38.040Z,0.00
2023-04-27T02:44:38.132Z,0.00
2023-04-27T02:45:38.228Z,0.00
2023-04-27T02:46:38.328Z,0.00
2023-04-27T02:47:38.409Z,0.00
2023-04-27T02:48:38.440Z,0.00
2023-04-27T02:49:38.600Z,0.00
2023-04-27T02:50:38.613Z,0.00
2023-04-27T02:51:38.699Z,0.00
2023-04-27T02:52:38.782Z,0.00
2023-04-27T02:53:38.835Z,0.00
2023-04-27T02:54:38.984Z,0.00
2023-04-27T02:55:38.985Z,0.00
2023-04-27T02:56:39.052Z,0.00
2023-04-27T02:57:39.158Z,0.00
2023-04-27T02:58:39.185Z,0.00
2023-04-27T02:59:39.294Z,0.00
2023-04-27T03:00:39.356Z,0.00
2023-04-27T03:01:39.458Z,0.00
2023-04-27T03:02:39.661Z,0.00
2023-04-27T03:03:39.837Z,0.00
2023-04-27T03:04:39.756Z,0.00
2023-04-27T03:05:39.770Z,0.00
2023-04-27T03:06:39.840Z,0.00
2023-04-27T03:07:39.929Z,0.00
2023-04-27T03:08:39.997Z,0.00
2023-04-27T03:09:40.102Z,0.00
2023-04-27T03:10:40.165Z,0.00
2023-04-27T03:11:40.241Z,0.00
2023-04-27T03:12:40.320Z,0.00
2023-04-27T03:13:40.387Z,0.00
2023-04-27T03:14:40.489Z,0.00
2023-04-27T03:15:40.563Z,0.00
2023-04-27T03:16:40.672Z,0.00
2023-04-27T03:17:40.767Z,0.00
2023-04-27T03:18:40.827Z,0.00
2023-04-27T03:19:40.931Z,0.00
2023-04-27T03:20:40.958Z,0.00
2023-04-27T03:21:41.049Z,0.00
2023-04-27T03:22:41.133Z,0.00
2023-04-27T03:23:41.221Z,0.00
2023-04-27T03:24:41.296Z,0.00
2023-04-27T03:25:41.378Z,0.00
2023-04-27T03:26:41.441Z,0.00
2023-04-27T03:27:41.520Z,0.00
2023-04-27T03:28:41.586Z,0.00
2023-04-27T03:29:41.678Z,0.00
2023-04-27T03:30:41.748Z,0.00
2023-04-27T03:31:41.944Z,0.00
2023-04-27T03:32:42.002Z,0.00
2023-04-27T03:33:42.022Z,0.00
2023-04-27T03:34:42.072Z,0.00
2023-04-27T03:35:42.139Z,0.00
2023-04-27T03:36:42.220Z,0.00
2023-04-27T03:37:42.336Z,0.00
2023-04-27T03:38:42.392Z,0.00
2023-04-27T03:39:42.504Z,0.00
2023-04-27T03:40:42.582Z,0.00
2023-04-27T03:41:42.684Z,0.00
2023-04-27T03:42:42.774Z,0.00
2023-04-27T03:43:42.860Z,0.00
2023-04-27T03:44:42.937Z,0.00
2023-04-27T03:45:43.041Z,0.00
2023-04-27T03:46:43.079Z,0.00
2023-04-27T03:47:43.208Z,0.00
2023-04-27T03:48:43.257Z,0.00
2023-04-27T03:49:43.359Z,0.00
2023-04-27T03:50:43.418Z,0.00
2023-04-27T03:51:43.524Z,0.00
2023-04-27T03:52:43.601Z,0.00
2023-04-27T03:53:43.672Z,0.00
2023-04-27T03:54:43.747Z,0.00
2023-04-27T03:55:43.829Z,0.00
2023-04-27T03:56:43.905Z,0.00
2023-04-27T03:57:43.997Z,0.00
2023-04-27T03:58:44.056Z,0.00
2023-04-27T03:59:44.174Z,0.00
2023-04-27T04:00:44.231Z,0.00
2023-04-27T04:01:44.359Z,0.00
2023-04-27T04:02:44.559Z,0.00
2023-04-27T04:03:44.612Z,0.00
2023-04-27T04:04:44.636Z,0.00
2023-04-27T04:05:44.604Z,0.00
2023-04-27T04:06:44.665Z,0.00
2023-04-27T04:07:44.773Z,0.00
2023-04-27T04:08:44.845Z,0.00
2023-04-27T04:09:44.932Z,0.00
2023-04-27T04:10:44.983Z,0.00
2023-04-27T04:11:45.080Z,5.62
2023-04-27T04:12:45.132Z,5.62
2023-04-27T04:13:45.234Z,5.62
2023-04-27T04:14:45.362Z,5.62
2023-04-27T04:15:45.472Z,5.62
2023-04-27T04:16:45.510Z,5.62
2023-04-27T04:17:45.647Z,5.62
2023-04-27T04:18:45.690Z,11.25
2023-04-27T04:19:45.810Z,11.25
2023-04-27T04:20:45.867Z,11.25
2023-04-27T04:21:45.968Z,11.25
2023-04-27T04:22:46.029Z,11.25
2023-04-27T04:23:46.101Z,16.88
2023-04-27T04:24:46.197Z,16.88
2023-04-27T04:25:46.263Z,16.88
2023-04-27T04:26:46.314Z,16.88
2023-04-27T04:27:46.418Z,22.50
2023-04-27T04:28:46.470Z,22.50
2023-04-27T04:29:46.582Z,22.50
2023-04-27T04:30:46.634Z,28.12
2023-04-27T04:31:46.776Z,28.12
2023-04-27T04:32:46.840Z,28.12
2023-04-27T04:33:46.893Z,28.12
2023-04-27T04:34:46.992Z,33.75
2023-04-27T04:35:47.145Z,33.75
2023-04-27T04:36:47.166Z,33.75
2023-04-27T04:37:47.232Z,39.38
2023-04-27T04:38:47.296Z,39.38
2023-04-27T04:39:47.403Z,45.00
2023-04-27T04:40:47.447Z,45.00
2023-04-27T04:41:47.534Z,45.00
2023-04-27T04:42:47.579Z,50.62
2023-04-27T04:43:47.678Z,56.25
2023-04-27T04:44:47.800Z,56.25
2023-04-27T04:45:47.852Z,61.88
2023-04-27T04:46:48.021Z,67.50
2023-04-27T04:47:48.060Z,67.50
2023-04-27T04:48:48.121Z,73.12
2023-04-27T04:49:48.224Z,73.12
2023-04-27T04:50:48.277Z,73.12
2023-04-27T04:51:48.361Z,78.75
2023-04-27T04:52:48.419Z,84.38
2023-04-27T04:53:48.495Z,90.00
2023-04-27T04:54:48.587Z,90.00
2023-04-27T04:55:48.647Z,95.62
2023-04-27T04:56:48.728Z,101.25
2023-04-27T04:57:48.839Z,106.88
2023-04-27T04:58:48.886Z,112.50
2023-04-27T04:59:49.006Z,118.12
2023-04-27T05:00:49.063Z,129.38
2023-04-27T05:01:49.184Z,135.00
2023-04-27T05:02:49.423Z,146.25
2023-04-27T05:03:49.582Z,151.88
2023-04-27T05:04:49.456Z,157.50
2023-04-27T05:05:49.442Z,168.75
2023-04-27T05:06:49.503Z,168.75
2023-04-27T05:07:49.604Z,168.75
2023-04-27T05:08:49.690Z,180.00
2023-04-27T05:09:49.798Z,196.88
2023-04-27T05:10:49.838Z,202.50
2023-04-27T05:11:49.936Z,213.75
2023-04-27T05:12:50.000Z,225.00
2023-04-27T05:13:50.087Z,230.62
2023-04-27T05:14:50.185Z,230.62
2023-04-27T05:15:50.268Z,236.25
2023-04-27T05:16:50.300Z,241.88
2023-04-27T05:17:50.411Z,247.50
2023-04-27T05:18:50.428Z,258.75
2023-04-27T05:19:50.530Z,264.38
2023-04-27T05:20:50.590Z,270.00
2023-04-27T05:21:50.677Z,275.62
2023-04-27T05:22:50.744Z,281.25
2023-04-27T05:23:50.841Z,292.50
2023-04-27T05:24:50.924Z,303.75
2023-04-27T05:25:50.993Z,320.62
2023-04-27T05:26:51.069Z,337.50
2023-04-27T05:27:51.136Z,348.75
2023-04-27T05:28:51.193Z,360.00
2023-04-27T05:29:51.283Z,376.88
2023-04-27T05:30:51.336Z,388.12
2023-04-27T05:31:51.454Z,399.38
2023-04-27T05:32:51.522Z,416.25
2023-04-27T05:33:51.566Z,427.50
2023-04-27T05:34:51.674Z,438.75
2023-04-27T05:35:51.738Z,444.38
2023-04-27T05:36:51.807Z,455.62
2023-04-27T05:37:51.902Z,466.88
2023-04-27T05:38:51.972Z,466.88
2023-04-27T05:39:52.085Z,438.75
2023-04-27T05:40:52.813Z,450.00
2023-04-27T05:41:52.201Z,472.50
2023-04-27T05:42:52.260Z,483.75
2023-04-27T05:43:52.350Z,489.38
2023-04-27T05:44:52.436Z,483.75
2023-04-27T05:45:52.571Z,495.00
2023-04-27T05:46:52.613Z,511.88
2023-04-27T05:47:52.785Z,528.75
2023-04-27T05:48:52.778Z,540.00
2023-04-27T05:49:52.892Z,551.25
2023-04-27T05:50:52.958Z,551.25
2023-04-27T05:51:53.049Z,556.88
2023-04-27T05:52:53.111Z,556.88
2023-04-27T05:53:53.216Z,556.88
2023-04-27T05:54:53.330Z,551.25
2023-04-27T05:55:53.375Z,534.38
2023-04-27T05:56:53.465Z,528.75
2023-04-27T05:58:04.643Z,528.75
2023-04-27T05:58:53.612Z,540.00
2023-04-27T05:59:53.724Z,556.88
2023-04-27T06:00:53.761Z,568.12
2023-04-27T06:01:53.900Z,579.38
2023-04-27T06:02:54.048Z,562.50
2023-04-27T06:03:54.078Z,573.75
2023-04-27T06:04:54.092Z,596.25
2023-04-27T06:05:54.972Z,624.38
2023-04-27T06:06:54.229Z,641.25
2023-04-27T06:07:54.325Z,652.50
2023-04-27T06:08:54.393Z,804.38
2023-04-27T06:09:54.501Z,1535.62
2023-04-27T06:10:54.529Z,2075.62
2023-04-27T06:11:54.613Z,2176.88
2023-04-27T06:12:54.664Z,2379.38
2023-04-27T06:13:54.774Z,2463.75
2023-04-27T06:14:54.892Z,2379.38
2023-04-27T06:15:55.020Z,2295.00
2023-04-27T06:16:55.076Z,2345.62
2023-04-27T06:17:55.155Z,2435.62
2023-04-27T06:18:55.193Z,2491.88
2023-04-27T06:19:55.292Z,2508.75
2023-04-27T06:20:55.377Z,2508.75
2023-04-27T06:21:55.452Z,2514.38
2023-04-27T06:22:55.562Z,2593.12
2023-04-27T06:23:55.628Z,2638.12
2023-04-27T06:24:55.743Z,2615.62
2023-04-27T06:25:55.771Z,2548.12
2023-04-27T06:26:55.867Z,2626.88
2023-04-27T06:27:55.952Z,2750.62
2023-04-27T06:28:56.048Z,2745.00
2023-04-27T06:29:56.143Z,2750.62
2023-04-27T06:30:56.238Z,2750.62
2023-04-27T06:31:56.378Z,2767.50
2023-04-27T06:32:56.443Z,2801.25
2023-04-27T06:33:56.459Z,2767.50
2023-04-27T06:34:56.573Z,2801.25
2023-04-27T06:35:56.614Z,2795.62
2023-04-27T06:36:56.694Z,2773.12
2023-04-27T06:37:56.781Z,2761.88
2023-04-27T06:38:56.871Z,2846.25
2023-04-27T06:39:56.958Z,3020.62
2023-04-27T06:40:57.031Z,2947.50
2023-04-27T06:41:57.103Z,2767.50
2023-04-27T06:42:57.341Z,2840.62
2023-04-27T06:43:58.540Z,2790.00
2023-04-27T06:44:57.359Z,2986.88
2023-04-27T06:45:57.430Z,3065.62
2023-04-27T06:46:57.469Z,3099.38
2023-04-27T06:47:57.558Z,3009.38
2023-04-27T06:48:57.609Z,3144.38
2023-04-27T06:49:57.695Z,3178.12
2023-04-27T06:50:57.762Z,2992.50
2023-04-27T06:51:57.826Z,2975.62
2023-04-27T06:52:57.942Z,3116.25
2023-04-27T06:53:57.986Z,3183.75
2023-04-27T06:54:58.084Z,3037.50
2023-04-27T06:55:58.142Z,3223.12
2023-04-27T06:56:58.225Z,3391.88
2023-04-27T06:57:58.279Z,3352.50
2023-04-27T06:58:58.356Z,3307.50
2023-04-27T06:59:58.772Z,3178.12
2023-04-27T07:00:58.525Z,2998.12
2023-04-27T07:01:58.654Z,2880.00
2023-04-27T07:02:58.776Z,2722.50
2023-04-27T07:03:58.872Z,2497.50
2023-04-27T07:04:58.881Z,2778.75
2023-04-27T07:05:58.881Z,2846.25
2023-04-27T07:06:58.957Z,2958.75
2023-04-27T07:08:01.474Z,3352.50
2023-04-27T07:08:59.125Z,3616.88
2023-04-27T07:09:59.202Z,3273.75
2023-04-27T07:10:59.283Z,3200.62
2023-04-27T07:11:59.330Z,3571.88
2023-04-27T07:12:59.399Z,3549.38
2023-04-27T07:13:59.487Z,3448.12
2023-04-27T07:14:59.582Z,3268.12
2023-04-27T07:15:59.667Z,3048.75
2023-04-27T07:16:59.707Z,3245.62
2023-04-27T07:17:59.841Z,2610.00
2023-04-27T07:18:59.848Z,2295.00
2023-04-27T07:20:00.003Z,2193.75
2023-04-27T07:20:59.981Z,2311.88
2023-04-27T07:22:00.053Z,3015.00
2023-04-27T07:23:00.148Z,3273.75
2023-04-27T07:24:00.216Z,3397.50
2023-04-27T07:25:00.272Z,3183.75
2023-04-27T07:26:00.335Z,2851.88
2023-04-27T07:27:00.401Z,2446.88
2023-04-27T07:28:00.463Z,2621.25
2023-04-27T07:29:02.839Z,2812.50
2023-04-27T07:30:00.648Z,2773.12
2023-04-27T07:31:00.715Z,2958.75
2023-04-27T07:32:00.824Z,2508.75
2023-04-27T07:33:00.917Z,3268.12
2023-04-27T07:34:00.898Z,3043.12
2023-04-27T07:35:01.021Z,2722.50
2023-04-27T07:36:01.099Z,2559.38
2023-04-27T07:37:01.167Z,3133.12
2023-04-27T07:38:01.242Z,3324.38
2023-04-27T07:39:01.320Z,3616.88
2023-04-27T07:40:01.404Z,3813.75
2023-04-27T07:41:01.464Z,3695.62
2023-04-27T07:42:01.515Z,3566.25
2023-04-27T07:43:01.601Z,3718.12
2023-04-27T07:44:01.652Z,3898.12
2023-04-27T07:45:01.739Z,3796.88
2023-04-27T07:46:01.842Z,3864.38
2023-04-27T07:47:01.882Z,2913.75
2023-04-27T07:48:02.090Z,3285.00
2023-04-27T07:49:02.040Z,3324.38
2023-04-27T07:50:02.125Z,3228.75
2023-04-27T07:51:02.198Z,3498.75
2023-04-27T07:52:02.252Z,3515.62
2023-04-27T07:53:02.323Z,3358.12
2023-04-27T07:54:02.387Z,3268.12
2023-04-27T07:55:02.510Z,3273.75
2023-04-27T07:56:02.554Z,3358.12
2023-04-27T07:57:02.631Z,3386.25
2023-04-27T07:58:02.726Z,3510.00
2023-04-27T07:59:02.820Z,3549.38
2023-04-27T08:00:02.921Z,3628.12
2023-04-27T08:01:02.983Z,3605.62
2023-04-27T08:03:03.370Z,3712.50
2023-04-27T08:04:03.459Z,3690.00
2023-04-27T08:05:03.975Z,3431.25
2023-04-27T08:06:03.848Z,3532.50
2023-04-27T08:07:04.210Z,3673.12
2023-04-27T08:08:03.616Z,3453.75
2023-04-27T08:09:03.642Z,3549.38
2023-04-27T08:10:03.714Z,3690.00
2023-04-27T08:11:03.798Z,3751.88
2023-04-27T08:12:03.877Z,3836.25
2023-04-27T08:13:03.946Z,3870.00
2023-04-27T08:14:04.014Z,3622.50
2023-04-27T08:15:04.109Z,3403.12
2023-04-27T08:16:04.164Z,3268.12
2023-04-27T08:17:04.296Z,3150.00
2023-04-27T08:18:04.334Z,2761.88
2023-04-27T08:19:04.370Z,2919.38
2023-04-27T08:20:04.491Z,3189.38
2023-04-27T08:21:04.547Z,3116.25
2023-04-27T08:22:04.603Z,3324.38
2023-04-27T08:23:04.742Z,3200.62
2023-04-27T08:24:04.772Z,3296.25
2023-04-27T08:25:04.901Z,3009.38
2023-04-27T08:26:04.943Z,2716.88
2023-04-27T08:27:05.011Z,2711.25
2023-04-27T08:28:05.068Z,2570.62
2023-04-27T08:29:15.397Z,2745.00
2023-04-27T08:30:05.468Z,2683.12
2023-04-27T08:31:05.360Z,2722.50
2023-04-27T08:32:05.360Z,2700.00
2023-04-27T08:33:05.532Z,2621.25
2023-04-27T08:34:05.547Z,2655.00
2023-04-27T08:35:05.665Z,2998.12
2023-04-27T08:36:05.710Z,2885.62
2023-04-27T08:37:05.790Z,2919.38
2023-04-27T08:38:05.869Z,2823.75
2023-04-27T08:39:05.934Z,3003.75
2023-04-27T08:40:06.025Z,3138.75
2023-04-27T08:41:20.406Z,3144.38
2023-04-27T08:42:06.169Z,3133.12
2023-04-27T08:43:06.253Z,3358.12
2023-04-27T08:44:06.322Z,3363.75
2023-04-27T08:45:06.412Z,3178.12
2023-04-27T08:46:06.595Z,3144.38
2023-04-27T08:47:06.528Z,3228.75
2023-04-27T08:48:06.634Z,3296.25
2023-04-27T08:49:06.681Z,3076.88
2023-04-27T08:50:06.772Z,2581.88
2023-04-27T08:51:06.836Z,2632.50
2023-04-27T08:52:06.902Z,2688.75
2023-04-27T08:53:07.010Z,2756.25
2023-04-27T08:54:07.067Z,2818.12
2023-04-27T08:55:07.189Z,3065.62
2023-04-27T08:56:07.233Z,2396.25
2023-04-27T08:57:07.326Z,2919.38
2023-04-27T08:58:07.426Z,2941.88
2023-04-27T08:59:07.543Z,3043.12
2023-04-27T09:00:07.697Z,3026.25
2023-04-27T09:01:07.848Z,3043.12
2023-04-27T09:02:08.047Z,2857.50
2023-04-27T09:03:07.989Z,3048.75
2023-04-27T09:04:08.193Z,3048.75
2023-04-27T09:05:08.168Z,2930.62
2023-04-27T09:06:08.111Z,2868.75
2023-04-27T09:07:08.167Z,2902.50
2023-04-27T09:08:08.299Z,2874.38
2023-04-27T09:09:08.334Z,2885.62
2023-04-27T09:10:08.424Z,2992.50
2023-04-27T09:11:08.489Z,2868.75
2023-04-27T09:12:08.553Z,2812.50
2023-04-27T09:13:08.629Z,2908.12
2023-04-27T09:14:08.705Z,2947.50
2023-04-27T09:15:08.842Z,2958.75
2023-04-27T09:16:08.883Z,2992.50
2023-04-27T09:17:08.938Z,3116.25
2023-04-27T09:18:09.030Z,2998.12
2023-04-27T09:19:09.122Z,2913.75
2023-04-27T09:20:09.583Z,2868.75
2023-04-27T09:21:09.287Z,2958.75
2023-04-27T09:22:09.330Z,2953.12
2023-04-27T09:23:09.441Z,3020.62
2023-04-27T09:24:09.513Z,2998.12
2023-04-27T09:25:09.580Z,2840.62
2023-04-27T09:26:09.665Z,2733.75
2023-04-27T09:27:09.732Z,2784.38
2023-04-27T09:28:09.796Z,2683.12
2023-04-27T09:29:09.874Z,1940.62
2023-04-27T09:30:09.948Z,2655.00
2023-04-27T09:31:10.049Z,2683.12
2023-04-27T09:32:10.086Z,2835.00
2023-04-27T09:33:10.199Z,2868.75
2023-04-27T09:34:10.249Z,2750.62
2023-04-27T09:35:10.351Z,2565.00
2023-04-27T09:36:10.440Z,2818.12
2023-04-27T09:37:10.508Z,2857.50
2023-04-27T09:38:10.604Z,2784.38
2023-04-27T09:39:10.710Z,2390.62
2023-04-27T09:40:10.704Z,2025.00
2023-04-27T09:41:10.845Z,2362.50
2023-04-27T09:42:10.859Z,2520.00
2023-04-27T09:43:10.961Z,2368.12
2023-04-27T09:44:11.015Z,2295.00
2023-04-27T09:45:11.133Z,2266.88
2023-04-27T09:46:11.214Z,1906.88
2023-04-27T09:47:11.293Z,2233.12
2023-04-27T09:48:11.349Z,2143.12
2023-04-27T09:49:11.645Z,2193.75
2023-04-27T09:50:11.506Z,2289.38
2023-04-27T09:51:11.602Z,2469.38
2023-04-27T09:52:11.688Z,2531.25
2023-04-27T09:53:11.764Z,2565.00
2023-04-27T09:54:11.830Z,2205.00
2023-04-27T09:55:11.924Z,2261.25
2023-04-27T09:56:12.002Z,2323.12
2023-04-27T09:57:12.073Z,2193.75
2023-04-27T09:58:12.126Z,2272.50
2023-04-27T09:59:12.407Z,2441.25
2023-04-27T10:00:12.295Z,2081.25
2023-04-27T10:01:12.401Z,1839.38
2023-04-27T10:02:24.142Z,2227.50
2023-04-27T10:03:12.612Z,2154.38
2023-04-27T10:04:12.749Z,1878.75
2023-04-27T10:05:12.714Z,2075.62
2023-04-27T10:06:12.766Z,1856.25
2023-04-27T10:07:12.830Z,1856.25
2023-04-27T10:08:12.921Z,1985.62
2023-04-27T10:09:13.140Z,2002.50
2023-04-27T10:10:13.070Z,2047.50
2023-04-27T10:11:13.154Z,1968.75
2023-04-27T10:12:13.218Z,1687.50
2023-04-27T10:13:13.288Z,1923.75
2023-04-27T10:14:13.354Z,1968.75
2023-04-27T10:15:13.435Z,1918.12
2023-04-27T10:16:13.530Z,1800.00
2023-04-27T10:17:13.659Z,1749.38
2023-04-27T10:18:13.675Z,1861.88
2023-04-27T10:19:14.120Z,1771.88
2023-04-27T10:20:13.831Z,1659.38
2023-04-27T10:21:13.921Z,1530.00
2023-04-27T10:22:13.983Z,1648.12
2023-04-27T10:23:14.068Z,1620.00
2023-04-27T10:24:14.124Z,1726.88
2023-04-27T10:25:14.222Z,1687.50
2023-04-27T10:26:14.309Z,1648.12
2023-04-27T10:27:14.374Z,1591.88
2023-04-27T10:28:14.441Z,1642.50
2023-04-27T10:29:14.672Z,1653.75
2023-04-27T10:30:14.585Z,1693.12
2023-04-27T10:31:14.738Z,1631.25
2023-04-27T10:32:14.738Z,1535.62
2023-04-27T10:33:14.799Z,1473.75
2023-04-27T10:34:14.867Z,1395.00
2023-04-27T10:35:14.951Z,1496.25
2023-04-27T10:36:15.030Z,1468.12
2023-04-27T10:37:15.076Z,1530.00
2023-04-27T10:38:15.167Z,1479.38
2023-04-27T10:39:15.784Z,1501.88
2023-04-27T10:40:15.317Z,1546.88
2023-04-27T10:41:15.385Z,1530.00
2023-04-27T10:42:15.455Z,1507.50
2023-04-27T10:43:15.559Z,1395.00
2023-04-27T10:44:15.614Z,1344.38
2023-04-27T10:45:15.694Z,1305.00
2023-04-27T10:46:15.940Z,1282.50
2023-04-27T10:47:15.842Z,1355.62
2023-04-27T10:48:16.076Z,1423.12
2023-04-27T10:49:15.995Z,1406.25
2023-04-27T10:50:16.071Z,1310.62
2023-04-27T10:51:16.496Z,1282.50
2023-04-27T10:52:16.240Z,1327.50
2023-04-27T10:53:16.318Z,1198.12
2023-04-27T10:54:16.393Z,1023.75
2023-04-27T10:55:16.476Z,950.62
2023-04-27T10:56:16.590Z,933.75
2023-04-27T10:57:16.616Z,905.62
2023-04-27T10:58:16.701Z,883.12
2023-04-27T10:59:16.867Z,855.00
2023-04-27T11:00:16.875Z,849.38
2023-04-27T11:01:17.077Z,855.00
2023-04-27T11:02:17.092Z,849.38
2023-04-27T11:03:17.331Z,832.50
2023-04-27T11:04:17.611Z,815.62
2023-04-27T11:05:17.290Z,821.25
2023-04-27T11:06:17.420Z,832.50
2023-04-27T11:07:17.484Z,838.12
2023-04-27T11:08:17.572Z,832.50
2023-04-27T11:09:17.605Z,826.88
2023-04-27T11:10:17.732Z,815.62
2023-04-27T11:11:17.792Z,804.38
2023-04-27T11:12:17.874Z,793.12
2023-04-27T11:13:17.989Z,793.12
2023-04-27T11:14:18.056Z,821.25
2023-04-27T11:15:18.135Z,815.62
2023-04-27T11:16:18.346Z,821.25
2023-04-27T11:17:18.299Z,821.25
2023-04-27T11:18:18.388Z,815.62
2023-04-27T11:19:18.458Z,798.75
2023-04-27T11:20:18.551Z,793.12
2023-04-27T11:21:18.673Z,804.38
2023-04-27T11:22:18.749Z,815.62
2023-04-27T11:23:18.807Z,826.88
2023-04-27T11:24:18.900Z,821.25
2023-04-27T11:25:18.980Z,815.62
2023-04-27T11:26:19.084Z,804.38
2023-04-27T11:27:19.136Z,798.75
2023-04-27T11:28:19.245Z,793.12
2023-04-27T11:29:19.278Z,776.25
2023-04-27T11:30:19.393Z,765.00
2023-04-27T11:31:19.513Z,742.50
2023-04-27T11:32:19.568Z,759.38
2023-04-27T11:33:19.638Z,765.00
2023-04-27T11:34:19.785Z,776.25
2023-04-27T11:35:19.806Z,776.25
2023-04-27T11:36:19.920Z,776.25
2023-04-27T11:37:19.969Z,765.00
2023-04-27T11:38:20.180Z,770.62
2023-04-27T11:39:20.189Z,770.62
2023-04-27T11:40:21.968Z,770.62
2023-04-27T11:41:20.350Z,776.25
2023-04-27T11:42:20.416Z,781.88
2023-04-27T11:43:20.500Z,798.75
2023-04-27T11:44:20.604Z,793.12
2023-04-27T11:45:20.670Z,793.12
2023-04-27T11:46:20.819Z,781.88
2023-04-27T11:47:20.851Z,770.62
2023-04-27T11:48:20.946Z,742.50
2023-04-27T11:49:21.004Z,736.88
2023-04-27T11:50:21.106Z,736.88
2023-04-27T11:51:21.229Z,742.50
2023-04-27T11:52:21.288Z,759.38
2023-04-27T11:53:21.377Z,748.12
2023-04-27T11:54:21.471Z,742.50
2023-04-27T11:55:21.563Z,736.88
2023-04-27T11:56:21.681Z,736.88
2023-04-27T11:57:21.735Z,742.50
2023-04-27T11:58:21.820Z,742.50
2023-04-27T11:59:21.881Z,736.88
2023-04-27T12:00:21.977Z,736.88
2023-04-27T12:01:31.077Z,731.25
2023-04-27T12:02:22.234Z,731.25
2023-04-27T12:03:22.484Z,736.88
2023-04-27T12:04:22.553Z,731.25
2023-04-27T12:05:22.612Z,731.25
2023-04-27T12:07:22.534Z,708.75
2023-04-27T12:08:22.637Z,708.75
2023-04-27T12:09:22.719Z,708.75
2023-04-27T12:10:22.829Z,720.00
2023-04-27T12:11:22.929Z,714.38
2023-04-27T12:12:23.021Z,725.62
2023-04-27T12:13:23.059Z,725.62
2023-04-27T12:14:23.144Z,731.25
2023-04-27T12:15:23.205Z,731.25
2023-04-27T12:16:23.640Z,725.62
2023-04-27T12:17:23.472Z,731.25
2023-04-27T12:18:23.447Z,742.50
2023-04-27T12:19:23.552Z,731.25
2023-04-27T12:20:23.658Z,736.88
2023-04-27T12:21:24.090Z,725.62
2023-04-27T12:22:23.820Z,725.62
2023-04-27T12:23:23.912Z,725.62
2023-04-27T12:24:23.996Z,720.00
2023-04-27T12:25:24.068Z,725.62
2023-04-27T12:26:24.192Z,708.75
2023-04-27T12:27:24.240Z,703.12
2023-04-27T12:28:24.329Z,686.25
2023-04-27T12:29:24.424Z,686.25
2023-04-27T12:30:24.511Z,697.50
2023-04-27T12:31:26.959Z,697.50
2023-04-27T12:32:24.666Z,703.12
2023-04-27T12:33:24.759Z,703.12
2023-04-27T12:34:24.856Z,714.38
2023-04-27T12:35:24.952Z,725.62
2023-04-27T12:36:25.105Z,731.25
2023-04-27T12:37:26.927Z,736.88
2023-04-27T12:38:25.228Z,731.25
2023-04-27T12:39:25.326Z,736.88